createdAt,value
2023-05-13T00:04:52.638Z,4.9
2023-05-13T00:20:01.429Z,4.5
2023-05-13T00:35:10.676Z,6.2
2023-05-13T00:50:20.705Z,5.7
2023-05-13T01:05:32.934Z,5.9
2023-05-13T01:20:42.706Z,6.2
2023-05-13T01:35:52.035Z,6.7
2023-05-13T01:51:02.363Z,6.5
2023-05-13T02:06:11.892Z,7.1
2023-05-13T02:21:21.456Z,6.8
2023-05-13T02:36:33.399Z,7.1
2023-05-13T02:51:42.822Z,7.1
2023-05-13T03:06:52.278Z,6.7
2023-05-13T03:22:01.796Z,7.3
2023-05-13T03:37:11.247Z,7.3
2023-05-13T03:52:20.511Z,7.9
2023-05-13T04:07:30.634Z,8.2
2023-05-13T04:22:40.174Z,6.2
2023-05-13T04:37:50.547Z,6.4
2023-05-13T04:53:00.747Z,6.8
2023-05-13T05:08:10.184Z,5.7
2023-05-13T05:23:19.523Z,6
2023-05-13T05:38:33.196Z,5.7
2023-05-13T05:53:43.052Z,5.6
2023-05-13T06:08:52.904Z,6.1
2023-05-13T06:24:02.471Z,6.1
2023-05-13T06:39:12.750Z,5.2
2023-05-13T06:54:22.564Z,5.8
2023-05-13T07:09:33.325Z,5.7
2023-05-13T07:24:42.823Z,6.3
2023-05-13T07:39:52.768Z,6.6
2023-05-13T07:55:02.708Z,6
2023-05-13T08:10:12.794Z,5.4
2023-05-13T08:25:23.238Z,5.5
2023-05-13T08:40:33.837Z,5.5
2023-05-13T08:55:43.850Z,6.1
2023-05-13T09:10:53.914Z,6.1
2023-05-13T09:26:03.690Z,5.3
2023-05-13T09:41:13.886Z,5.9
2023-05-13T09:56:24.065Z,5.2
2023-05-13T10:11:33.911Z,5
2023-05-13T10:26:43.983Z,5.3
2023-05-13T10:41:53.855Z,5
2023-05-13T10:57:04.464Z,5.5
2023-05-13T11:12:14.688Z,5.5
2023-05-13T11:27:25.158Z,5.7
2023-05-13T11:42:34.959Z,4.6
2023-05-13T11:57:44.990Z,4.1
2023-05-13T12:12:55.569Z,3.8
2023-05-13T12:28:05.362Z,4.4
2023-05-13T12:43:15.426Z,3.7
2023-05-13T12:58:25.984Z,4.5
2023-05-13T13:13:39.584Z,3.3
2023-05-13T13:28:48.660Z,3.8
2023-05-13T13:47:10.581Z,3.8
2023-05-13T14:02:23.971Z,3.2
2023-05-13T14:17:35.621Z,2.9
2023-05-13T14:33:16.365Z,3.8
2023-05-13T14:48:27.620Z,2.9
2023-05-13T15:03:37.211Z,2.7
2023-05-13T15:18:47.580Z,3.6
2023-05-13T15:33:57.741Z,2.7
2023-05-13T15:49:06.229Z,3.2
2023-05-13T16:04:15.587Z,3.8
2023-05-13T16:19:24.789Z,3.9
2023-05-13T16:34:35.044Z,3.2
2023-05-13T16:49:44.095Z,3.5
2023-05-13T17:04:52.478Z,3
2023-05-13T17:20:01.720Z,3.3
2023-05-13T17:35:10.834Z,3
2023-05-13T17:50:20.993Z,3.2
2023-05-13T18:05:33.755Z,3.8
2023-05-13T18:20:43.139Z,3
2023-05-13T18:35:52.846Z,2.7
2023-05-13T18:51:01.984Z,3.5
2023-05-13T19:06:11.379Z,4.6
2023-05-13T19:21:20.287Z,4.2
2023-05-13T19:36:33.815Z,4
2023-05-13T19:51:43.433Z,3.8
2023-05-13T20:06:52.792Z,5.4
2023-05-13T20:22:02.435Z,4.2
2023-05-13T20:37:13.059Z,4.3
2023-05-13T20:52:22.728Z,4
2023-05-13T21:07:32.443Z,4.2
2023-05-13T21:22:42.134Z,4.7
2023-05-13T21:37:58.678Z,4.2
2023-05-13T21:53:22.663Z,4.4
2023-05-13T22:08:34.209Z,4.7
2023-05-13T22:23:44.166Z,4.9
2023-05-13T22:38:53.559Z,5.7
2023-05-13T22:54:02.940Z,6.5
2023-05-13T23:09:12.227Z,6.1
2023-05-13T23:24:22.259Z,6.7
2023-05-13T23:39:33.005Z,6.6
2023-05-13T23:54:42.285Z,5.5
